Time;durP1;ratioP1;P1;durP2;ratioP2;P2;SDS_P1;SDS_P2;PMS_P1;PMS_P2;Temp;Humidity;BMP_temperature;BMP_pressure;BME280_temperature;BME280_humidity;BME280_pressure;Samples;Min_cycle;Max_cycle;Signal;HPM_P1;HPM_P2
2024/04/12 00:02:26;;;;;;;13.63;12.33;;;;;;;16.12;80.14;102125.94;5418415;26;20239;-77
2024/04/12 00:04:53;;;;;;;11.83;10.77;;;;;;;16.06;80.87;102108.47;5418123;26;20224;-79
2024/04/12 00:07:22;;;;;;;12.17;11.07;;;;;;;16.04;80.26;102119.00;5404531;26;20642;-77
2024/04/12 00:09:52;;;;;;;12.63;11.63;;;;;;;16.04;80.85;102111.09;5405176;26;20335;-80
2024/04/12 00:12:25;;;;;;;12.33;11.40;;;;;;;16.07;81.37;102102.28;5419094;26;20762;-79
2024/04/12 00:14:51;;;;;;;12.10;10.47;;;;;;;16.08;80.40;102109.31;5405053;26;20343;-78
2024/04/12 00:17:19;;;;;;;11.40;10.57;;;;;;;16.12;81.08;102110.13;5418845;26;20251;-79
2024/04/12 00:19:45;;;;;;;12.63;11.73;;;;;;;16.03;80.98;102106.72;5419309;26;20223;-78
2024/04/12 00:22:14;;;;;;;12.70;11.50;;;;;;;16.05;80.60;102107.59;5418668;26;20234;-79
2024/04/12 00:24:39;;;;;;;12.40;11.40;;;;;;;16.03;80.96;102104.09;5418095;26;20282;-78
2024/04/12 00:27:08;;;;;;;12.53;11.43;;;;;;;16.03;81.28;102090.91;5418436;26;20336;-78
2024/04/12 00:29:36;;;;;;;11.50;10.53;;;;;;;15.99;80.94;102096.25;5419950;26;20225;-76
2024/04/12 00:32:13;;;;;;;12.80;11.80;;;;;;;15.98;80.74;102094.53;5417778;26;20259;-80
2024/04/12 00:34:39;;;;;;;11.73;10.83;;;;;;;16.00;81.75;102079.56;5418071;26;20739;-80
2024/04/12 00:37:15;;;;;;;12.97;11.80;;;;;;;16.05;81.33;102075.97;5418231;26;20253;-78
2024/04/12 00:39:47;;;;;;;11.57;10.57;;;;;;;16.07;81.69;102078.56;5418855;26;20224;-79
2024/04/12 00:42:24;;;;;;;11.13;10.23;;;;;;;16.07;82.24;102075.94;5418421;26;20227;-80
2024/04/12 00:44:54;;;;;;;11.73;10.83;;;;;;;16.05;81.50;102078.63;5417647;26;20223;-77
2024/04/12 00:47:23;;;;;;;12.83;11.83;;;;;;;16.02;82.06;102076.03;5418540;26;20269;-78
2024/04/12 00:49:49;;;;;;;12.60;11.60;;;;;;;16.08;82.02;102077.69;5418570;26;20265;-80
2024/04/12 00:52:22;;;;;;;12.37;11.43;;;;;;;16.08;81.99;102075.06;5419063;26;20223;-79
2024/04/12 00:54:53;;;;;;;12.23;11.13;;;;;;;16.08;81.55;102083.81;5418266;26;20239;-77
2024/04/12 00:57:21;;;;;;;12.53;11.43;;;;;;;16.05;81.54;102083.88;5418187;26;20567;-79
2024/04/12 00:59:51;;;;;;;14.63;13.33;;;;;;;15.86;80.59;102114.88;5417914;26;20706;-80
2024/04/12 01:02:22;;;;;;;13.03;12.03;;;;;;;15.92;80.52;102119.19;5417765;26;20262;-79
2024/04/12 01:04:47;;;;;;;13.73;12.60;;;;;;;15.75;80.63;102108.88;5418246;26;20223;-79
2024/04/12 01:07:18;;;;;;;15.00;13.70;;;;;;;15.73;80.65;102108.03;5417956;26;20581;-77
2024/04/12 01:09:43;;;;;;;13.07;11.97;;;;;;;15.86;80.51;102103.47;5417862;26;20250;-78
2024/04/12 01:12:16;;;;;;;12.07;10.97;;;;;;;15.93;80.59;102099.84;5417862;26;20219;-79
2024/04/12 01:14:43;;;;;;;11.80;10.80;;;;;;;15.92;81.27;102095.50;5416056;26;20327;-79
2024/04/12 01:17:11;;;;;;;12.37;11.03;;;;;;;15.94;80.88;102080.53;5417165;26;20232;-79
2024/04/12 01:19:40;;;;;;;12.23;11.13;;;;;;;15.86;82.07;102070.13;5418670;26;20223;-80
2024/04/12 01:22:08;;;;;;;12.60;11.63;;;;;;;15.82;82.76;102049.13;5425281;26;20227;-79
2024/04/12 01:24:39;;;;;;;12.63;11.63;;;;;;;15.83;81.90;102054.34;5419547;26;20223;-80
2024/04/12 01:27:07;;;;;;;12.07;11.07;;;;;;;15.86;82.38;102051.69;5420675;26;20238;-78
2024/04/12 01:29:33;;;;;;;11.23;10.23;;;;;;;15.84;81.83;102044.72;5425060;26;20821;-79
2024/04/12 01:32:04;;;;;;;13.70;12.57;;;;;;;15.61;81.39;102055.53;5418921;26;20231;-75
2024/04/12 01:34:30;;;;;;;13.07;11.77;;;;;;;15.75;81.75;102047.47;5417690;26;20274;-78
2024/04/12 01:37:00;;;;;;;12.20;11.17;;;;;;;15.82;81.49;102051.75;5417999;26;20240;-79
2024/04/12 01:39:28;;;;;;;13.97;12.67;;;;;;;15.76;82.04;102041.31;5417342;26;20253;-79
2024/04/12 01:42:04;;;;;;;13.07;11.90;;;;;;;15.78;82.29;102026.38;5418004;26;20315;-80
2024/04/12 01:44:30;;;;;;;12.43;11.43;;;;;;;15.77;83.19;102012.31;5417966;26;20218;-77
2024/04/12 01:47:03;;;;;;;11.23;10.33;;;;;;;15.79;83.34;102001.75;5417489;26;20236;-78
2024/04/12 01:49:30;;;;;;;12.53;10.97;;;;;;;15.79;83.12;101997.34;5418144;26;20251;-76
2024/04/12 01:51:59;;;;;;;11.63;10.63;;;;;;;15.77;83.60;101996.50;5417718;26;20223;-77
2024/04/12 01:54:24;;;;;;;11.17;10.37;;;;;;;15.75;83.45;101990.41;5417469;26;20230;-79
2024/04/12 01:56:52;;;;;;;11.63;10.63;;;;;;;15.75;83.80;101995.66;5418014;26;20791;-79
2024/04/12 01:59:21;;;;;;;12.57;11.47;;;;;;;15.71;83.99;101995.72;5416986;26;20236;-79
2024/04/12 02:01:50;;;;;;;12.13;11.07;;;;;;;15.65;83.19;102008.06;5417742;26;20227;-79
2024/04/12 02:04:18;;;;;;;13.23;11.93;;;;;;;15.55;82.34;102017.00;5417813;26;20567;-77
2024/04/12 02:06:48;;;;;;;12.37;11.27;;;;;;;15.63;82.30;102032.69;5411551;26;20938;-79
2024/04/12 02:09:14;;;;;;;11.33;10.33;;;;;;;15.67;83.13;102019.44;5382606;26;20225;-77
2024/04/12 02:11:45;;;;;;;11.57;10.67;;;;;;;15.59;84.27;102005.53;5380867;26;20223;-79
2024/04/12 02:14:11;;;;;;;13.03;11.93;;;;;;;15.64;84.02;102001.06;5382414;26;20319;-79
2024/04/12 02:16:42;;;;;;;12.37;11.37;;;;;;;15.68;83.39;102012.44;5380751;26;20272;-79
2024/04/12 02:19:10;;;;;;;11.60;10.70;;;;;;;15.64;82.68;102008.13;5382605;26;20251;-79
2024/04/12 02:21:38;;;;;;;11.67;10.77;;;;;;;15.67;83.87;102005.41;5381263;26;20259;-78
2024/04/12 02:24:05;;;;;;;11.87;10.90;;;;;;;15.63;84.88;101993.19;5381192;26;20266;-77
2024/04/12 02:26:34;;;;;;;13.33;12.23;;;;;;;15.55;83.83;101995.06;5384186;26;20239;-76
2024/04/12 02:29:01;;;;;;;14.03;12.77;;;;;;;15.52;84.30;101995.09;5384334;26;20265;-79
2024/04/12 02:31:31;;;;;;;12.53;11.20;;;;;;;15.57;84.41;101993.28;5383170;26;20220;-79
2024/04/12 02:33:59;;;;;;;11.30;10.50;;;;;;;15.59;84.90;101984.47;5383223;26;20320;-78
2024/04/12 02:36:30;;;;;;;12.27;11.30;;;;;;;15.59;83.93;102000.25;5384927;26;20782;-78
2024/04/12 02:38:56;;;;;;;12.03;10.93;;;;;;;15.61;84.60;101984.44;5384881;26;20301;-78
2024/04/12 02:41:30;;;;;;;12.30;11.20;;;;;;;15.60;85.39;101977.44;5384059;26;20229;-79
2024/04/12 02:43:58;;;;;;;12.97;11.77;;;;;;;15.43;84.90;101983.81;5384948;26;20228;-77
2024/04/12 02:46:26;;;;;;;12.53;11.43;;;;;;;15.52;85.21;101960.88;5384662;26;20222;-78
2024/04/12 02:48:52;;;;;;;12.40;11.40;;;;;;;15.57;84.70;101961.72;5384157;26;20224;-78
2024/04/12 02:51:23;;;;;;;12.03;10.83;;;;;;;15.60;85.15;101954.63;5384898;26;20261;-77
2024/04/12 02:53:50;;;;;;;12.87;11.87;;;;;;;15.63;84.36;101957.19;5384012;26;20232;-77
2024/04/12 02:56:24;;;;;;;13.37;11.33;;;;;;;15.64;84.69;101951.06;5384604;26;20258;-79
2024/04/12 02:58:51;;;;;;;11.50;10.60;;;;;;;15.64;84.87;101943.16;5383784;26;20224;-79
2024/04/12 03:01:21;;;;;;;11.83;10.63;;;;;;;15.61;85.51;101932.66;5383534;26;20755;-79
2024/04/12 03:03:48;;;;;;;11.53;10.50;;;;;;;15.52;85.80;101927.56;5382485;26;20221;-79
2024/04/12 03:06:17;;;;;;;12.37;11.23;;;;;;;15.54;85.84;101925.78;5383399;26;20263;-77
2024/04/12 03:08:47;;;;;;;11.13;10.13;;;;;;;15.49;86.61;101910.03;5383891;26;20341;-77
2024/04/12 03:11:21;;;;;;;11.53;10.40;;;;;;;15.53;85.57;101915.28;5383337;26;20227;-79
2024/04/12 03:13:50;;;;;;;11.20;10.30;;;;;;;15.56;85.66;101915.22;5383686;26;20232;-78
2024/04/12 03:16:19;;;;;;;10.57;9.67;;;;;;;15.59;86.13;101917.81;5383520;26;20228;-78
2024/04/12 03:18:46;;;;;;;11.53;10.53;;;;;;;15.59;85.31;101912.53;5383532;26;20224;-77
2024/04/12 03:21:18;;;;;;;12.53;10.90;;;;;;;15.61;84.31;101932.66;5384379;26;20230;-77
2024/04/12 03:23:47;;;;;;;11.73;10.83;;;;;;;15.62;84.60;101939.69;5383431;26;20788;-77
2024/04/12 03:26:16;;;;;;;11.77;10.87;;;;;;;15.64;84.59;101939.66;5382983;26;20220;-80
2024/04/12 03:28:45;;;;;;;11.43;10.33;;;;;;;15.65;84.09;101937.00;5384717;26;20223;-79
2024/04/12 03:31:14;;;;;;;11.50;10.60;;;;;;;15.64;83.51;101955.47;5383597;26;20220;-79
2024/04/12 03:33:44;;;;;;;11.23;10.23;;;;;;;15.63;83.50;101948.44;5383287;26;20224;-79
2024/04/12 03:36:39;;;;;;;12.33;11.23;;;;;;;15.64;83.39;101969.50;5383364;26;20565;-78
2024/04/12 03:39:24;;;;;;;11.90;11.00;;;;;;;15.62;83.60;101963.38;5383053;26;20657;-79
2024/04/12 03:41:56;;;;;;;12.37;11.23;;;;;;;15.66;82.37;101977.38;5384574;26;20282;-77
2024/04/12 03:44:23;;;;;;;11.03;9.93;;;;;;;15.66;82.87;101969.47;5383143;26;20229;-78
2024/04/12 03:46:52;;;;;;;11.60;10.50;;;;;;;15.56;83.03;101984.53;5383230;26;20644;-78
2024/04/12 03:49:20;;;;;;;10.90;10.00;;;;;;;15.56;84.01;101959.94;5383586;26;20224;-80
2024/04/12 03:51:50;;;;;;;11.87;10.87;;;;;;;15.58;83.91;101951.16;5383552;26;20639;-76
2024/04/12 03:54:19;;;;;;;11.27;10.17;;;;;;;15.58;83.87;101940.63;5382340;26;20574;-78
2024/04/12 03:56:49;;;;;;;9.83;8.93;;;;;;;15.58;84.45;101934.47;5382697;26;20797;-78
2024/04/12 03:59:15;;;;;;;11.10;10.20;;;;;;;15.59;84.20;101934.47;5383444;26;20285;-79
2024/04/12 04:01:44;;;;;;;11.30;10.40;;;;;;;15.57;84.31;101927.50;5382912;26;20823;-79
2024/04/12 04:04:17;;;;;;;11.33;10.40;;;;;;;15.54;84.04;101938.06;5383165;26;20232;-77
2024/04/12 04:06:44;;;;;;;11.10;10.10;;;;;;;15.53;84.13;101937.19;5383315;26;20286;-78
2024/04/12 04:09:13;;;;;;;12.77;11.57;;;;;;;15.43;82.73;101965.41;5383337;26;20587;-78
2024/04/12 04:11:42;;;;;;;12.17;11.07;;;;;;;15.41;81.75;101984.75;5382539;26;20224;-75
2024/04/12 04:14:10;;;;;;;12.27;11.17;;;;;;;15.51;81.61;101996.00;5383232;26;20235;-78
2024/04/12 04:16:36;;;;;;;12.27;10.93;;;;;;;15.51;81.81;101996.00;5384005;26;20593;-77
2024/04/12 04:19:04;;;;;;;11.37;10.40;;;;;;;15.60;81.62;102002.00;5383895;26;20266;-78
2024/04/12 04:21:33;;;;;;;12.37;11.37;;;;;;;15.62;81.60;102002.00;5383834;26;20224;-79
2024/04/12 04:24:08;;;;;;;13.53;12.03;;;;;;;15.62;80.77;102002.00;5383989;26;20255;-77
2024/04/12 04:26:33;;;;;;;11.33;10.23;;;;;;;15.69;80.61;102017.66;5382450;26;20337;-79
2024/04/12 04:29:09;;;;;;;11.60;10.57;;;;;;;15.75;80.05;102024.63;5383611;26;20271;-79
2024/04/12 04:31:44;;;;;;;11.30;10.30;;;;;;;15.67;80.81;102021.22;5382857;26;20221;-78
2024/04/12 04:34:13;;;;;;;10.97;9.90;;;;;;;15.70;80.41;102021.19;5382614;26;20257;-80
2024/04/12 04:36:39;;;;;;;11.07;10.17;;;;;;;15.65;80.67;102017.72;5383335;26;20237;-79
2024/04/12 04:39:07;;;;;;;12.03;10.87;;;;;;;15.66;80.30;102020.34;5382414;26;20228;-79
2024/04/12 04:41:33;;;;;;;11.90;10.80;;;;;;;15.61;80.24;102031.84;5381369;26;20262;-79
2024/04/12 04:44:01;;;;;;;13.03;11.83;;;;;;;15.60;80.15;102032.72;5382059;26;20275;-79
2024/04/12 04:46:29;;;;;;;10.60;9.70;;;;;;;15.67;80.65;102026.47;5382409;26;20252;-79
2024/04/12 04:48:58;;;;;;;12.47;11.17;;;;;;;15.62;80.34;102041.47;5382074;26;20224;-79
2024/04/12 04:51:23;;;;;;;10.73;9.83;;;;;;;15.66;80.77;102044.03;5381990;26;20270;-77
2024/04/12 04:53:52;;;;;;;11.53;10.40;;;;;;;15.66;80.36;102044.03;5382146;26;20228;-77
2024/04/12 04:56:24;;;;;;;11.67;10.57;;;;;;;15.60;80.46;102051.13;5381605;26;20233;-79
2024/04/12 04:58:53;;;;;;;12.00;10.90;;;;;;;15.55;80.16;102055.59;5382736;26;20765;-78
2024/04/12 05:01:19;;;;;;;11.33;10.23;;;;;;;15.65;80.46;102046.69;5381939;26;20224;-79
2024/04/12 05:03:49;;;;;;;12.50;11.40;;;;;;;15.67;79.99;102051.03;5383009;26;20337;-78
2024/04/12 05:06:23;;;;;;;10.87;9.97;;;;;;;15.70;79.88;102058.03;5381410;26;20232;-80
2024/04/12 05:08:52;;;;;;;17.20;10.87;;;;;;;15.78;79.71;102058.81;5381689;26;20218;-79
2024/04/12 05:11:18;;;;;;;12.07;10.97;;;;;;;15.83;79.87;102064.00;5380649;26;20224;-79
2024/04/12 05:13:49;;;;;;;12.13;11.07;;;;;;;15.87;79.03;102061.31;5382709;26;20259;-79
2024/04/12 05:16:15;;;;;;;11.97;10.87;;;;;;;15.91;79.18;102077.06;5382459;26;20229;-79
2024/04/12 05:18:47;;;;;;;11.53;10.63;;;;;;;15.94;79.08;102080.53;5399660;26;20241;-79
2024/04/12 05:21:15;;;;;;;11.30;10.17;;;;;;;15.82;79.33;102080.72;5417630;26;20273;-77
2024/04/12 05:23:43;;;;;;;11.23;10.07;;;;;;;15.88;79.86;102076.22;5416867;26;20239;-78
2024/04/12 05:26:09;;;;;;;12.13;11.03;;;;;;;15.84;80.52;102065.78;5409453;26;20236;-78
2024/04/12 05:28:37;;;;;;;11.73;10.73;;;;;;;15.93;80.03;102067.38;5415094;26;20278;-81
2024/04/12 05:31:03;;;;;;;11.90;10.80;;;;;;;15.99;79.59;102075.19;5406556;26;20277;-83
2024/04/12 05:33:33;;;;;;;10.80;9.77;;;;;;;15.94;79.72;102075.28;5416951;26;20229;-84
2024/04/12 05:35:59;;;;;;;10.60;9.67;;;;;;;15.99;79.80;102077.81;5416894;26;20232;-83
2024/04/12 05:38:29;;;;;;;11.97;10.90;;;;;;;16.01;79.32;102076.03;5417438;26;20239;-85
2024/04/12 05:40:57;;;;;;;11.87;10.77;;;;;;;15.86;79.76;102075.38;5415880;26;20249;-82
2024/04/12 05:43:25;;;;;;;11.27;10.27;;;;;;;15.88;80.20;102070.09;5415487;26;20227;-81
2024/04/12 05:45:53;;;;;;;12.30;10.93;;;;;;;15.98;79.66;102073.47;5418604;26;20280;-81
2024/04/12 05:48:21;;;;;;;11.33;10.27;;;;;;;15.98;79.13;102078.72;5415070;26;20757;-80
2024/04/12 05:50:48;;;;;;;12.07;10.70;;;;;;;16.03;79.47;102075.09;5402285;26;20253;-83
2024/04/12 05:53:17;;;;;;;11.87;10.83;;;;;;;16.06;79.69;102082.13;5418069;26;20261;-84
2024/04/12 05:55:45;;;;;;;13.57;10.67;;;;;;;16.07;79.60;102078.56;5416976;26;20562;-82
2024/04/12 05:58:13;;;;;;;11.53;10.50;;;;;;;16.11;79.56;102075.00;5418141;26;20795;-83
2024/04/12 06:00:41;;;;;;;10.67;9.83;;;;;;;16.12;79.86;102070.63;5416813;26;20229;-82
2024/04/12 06:03:13;;;;;;;11.73;10.50;;;;;;;16.12;79.69;102058.31;5417739;26;20245;-82
2024/04/12 06:05:39;;;;;;;11.37;10.07;;;;;;;16.13;79.73;102057.41;5416639;26;20223;-82
2024/04/12 06:08:08;;;;;;;11.93;10.67;;;;;;;16.15;79.77;102052.97;5417458;26;20294;-83
2024/04/12 06:10:33;;;;;;;11.93;10.83;;;;;;;16.09;79.91;102034.63;5418586;26;20257;-83
2024/04/12 06:13:06;;;;;;;11.10;10.20;;;;;;;16.03;80.11;102037.38;5420460;26;20579;-83
2024/04/12 06:15:36;;;;;;;10.90;10.00;;;;;;;16.12;79.94;102031.97;5419079;26;20226;-80
2024/04/12 06:18:05;;;;;;;10.57;9.57;;;;;;;16.17;79.54;102045.91;5417675;26;20677;-80
2024/04/12 06:20:30;;;;;;;9.77;8.87;;;;;;;16.13;79.50;102046.00;5417048;26;20222;-79
2024/04/12 06:22:59;;;;;;;10.40;9.50;;;;;;;16.14;79.25;102053.03;5418043;26;20266;-79
2024/04/12 06:25:25;;;;;;;10.10;9.10;;;;;;;16.15;79.40;102049.47;5416591;26;20257;-80
2024/04/12 06:27:54;;;;;;;9.33;8.57;;;;;;;16.26;78.74;102053.69;5417683;26;20231;-78
2024/04/12 06:30:24;;;;;;;10.53;9.57;;;;;;;16.31;78.49;102050.94;5417135;26;20230;-79
2024/04/12 06:32:55;;;;;;;10.60;9.50;;;;;;;16.34;78.52;102044.78;5417664;26;20302;-78
2024/04/12 06:35:21;;;;;;;10.23;9.30;;;;;;;16.17;77.94;102048.53;5416723;26;20219;-79
2024/04/12 06:37:51;;;;;;;9.27;8.37;;;;;;;16.08;78.58;102043.44;5416899;26;20276;-79
2024/04/12 06:40:18;;;;;;;13.07;8.20;;;;;;;15.88;78.30;102039.34;5415533;26;20224;-79
2024/04/12 06:42:47;;;;;;;9.47;8.37;;;;;;;15.87;79.85;102028.84;5416876;26;20229;-78
2024/04/12 06:45:15;;;;;;;7.67;7.07;;;;;;;16.08;78.74;102025.88;5416810;26;20220;-79
2024/04/12 06:47:48;;;;;;;7.53;6.90;;;;;;;16.25;78.25;102033.50;5416285;26;20281;-78
2024/04/12 06:50:13;;;;;;;9.50;6.97;;;;;;;16.28;77.35;102051.03;5417629;26;20235;-79
2024/04/12 06:52:42;;;;;;;6.97;6.37;;;;;;;16.10;77.00;102078.53;5416662;26;20335;-79
2024/04/12 06:55:14;;;;;;;6.40;5.90;;;;;;;16.22;77.21;102083.59;5414020;26;20225;-78
2024/04/12 06:57:44;;;;;;;6.57;6.07;;;;;;;16.28;76.49;102103.72;5417389;26;20341;-80
2024/04/12 07:00:10;;;;;;;5.63;5.23;;;;;;;16.42;76.78;102099.09;5417569;26;20241;-80
2024/04/12 07:02:38;;;;;;;7.07;6.37;;;;;;;16.44;75.92;102110.47;5417618;26;20224;-80
2024/04/12 07:05:15;;;;;;;6.33;5.70;;;;;;;16.47;75.94;102118.34;5419510;26;20565;-79
2024/04/12 07:07:43;;;;;;;6.17;5.67;;;;;;;16.36;75.62;102127.31;5416645;26;20236;-78
2024/04/12 07:10:09;;;;;;;6.20;5.70;;;;;;;16.37;75.52;102129.03;5415067;26;20256;-78
2024/04/12 07:12:38;;;;;;;6.73;5.93;;;;;;;16.59;76.31;102127.81;5418959;26;20226;-79
2024/04/12 07:15:09;;;;;;;6.63;6.03;;;;;;;16.62;75.87;102137.44;5418915;26;20259;-78
2024/04/12 07:17:39;;;;;;;6.83;6.33;;;;;;;16.54;74.87;102141.97;5419266;26;20236;-78
2024/04/12 07:20:13;;;;;;;7.57;6.37;;;;;;;16.65;75.19;102150.59;5419416;26;20235;-80
2024/04/12 07:22:41;;;;;;;7.10;6.50;;;;;;;16.31;75.08;102166.91;5420835;26;20222;-81
2024/04/12 07:25:09;;;;;;;6.73;6.23;;;;;;;16.65;76.67;102153.22;5418343;26;20713;-79
2024/04/12 07:27:41;;;;;;;7.47;6.70;;;;;;;16.64;76.19;102148.81;5419126;26;20323;-80
2024/04/12 07:30:08;;;;;;;12.23;7.93;;;;;;;16.51;75.12;102174.53;5418692;26;20279;-78
2024/04/12 07:32:38;;;;;;;8.03;7.43;;;;;;;16.55;75.64;102170.06;5418840;26;20227;-80
2024/04/12 07:35:22;;;;;;;8.43;7.67;;;;;;;16.39;75.72;102172.97;5415345;26;20223;-80
2024/04/12 07:37:54;;;;;;;8.33;7.60;;;;;;;16.67;75.67;102154.06;5418896;26;20235;-79
2024/04/12 07:40:19;;;;;;;8.10;7.40;;;;;;;16.62;75.96;102150.63;5418227;26;20226;-78
2024/04/12 07:42:48;;;;;;;8.30;7.50;;;;;;;16.66;74.73;102168.13;5418638;26;20273;-78
2024/04/12 07:45:17;;;;;;;8.53;7.83;;;;;;;16.64;74.63;102167.28;5418254;26;20215;-79
2024/04/12 07:47:52;;;;;;;9.43;8.43;;;;;;;16.53;74.77;102178.00;5418257;26;20235;-80
2024/04/12 07:50:28;;;;;;;9.70;8.70;;;;;;;16.50;74.34;102179.81;5418821;26;20224;-79
2024/04/12 07:52:58;;;;;;;8.73;7.83;;;;;;;16.61;75.55;102162.03;5418602;26;20222;-79
2024/04/12 07:55:24;;;;;;;8.73;7.93;;;;;;;16.61;75.15;102154.13;5417573;26;20219;-79
2024/04/12 07:57:52;;;;;;;8.80;8.10;;;;;;;16.68;74.38;102161.91;5417787;26;20239;-81
2024/04/12 08:00:27;;;;;;;8.63;7.83;;;;;;;16.84;74.59;102156.41;5417976;26;20231;-80
2024/04/12 08:02:56;;;;;;;8.97;8.07;;;;;;;16.83;74.41;102179.31;5418335;26;20227;-80
2024/04/12 08:05:25;;;;;;;8.77;7.93;;;;;;;16.82;74.61;102177.53;5418071;26;20567;-79
2024/04/12 08:07:57;;;;;;;8.13;7.43;;;;;;;16.88;74.15;102176.56;5418941;26;20347;-79
2024/04/12 08:10:29;;;;;;;8.97;8.10;;;;;;;17.05;73.89;102176.28;5417803;26;20257;-79
2024/04/12 08:12:57;;;;;;;9.00;8.17;;;;;;;17.05;74.06;102174.50;5418858;26;20597;-80
2024/04/12 08:15:23;;;;;;;8.67;8.00;;;;;;;16.63;74.00;102199.81;5418187;26;20219;-79
2024/04/12 08:17:55;;;;;;;7.90;7.30;;;;;;;16.80;74.08;102187.22;5418580;26;20284;-79
2024/04/12 08:20:25;;;;;;;8.30;7.50;;;;;;;17.02;74.71;102174.56;5418116;26;20220;-78
2024/04/12 08:22:58;;;;;;;8.03;7.33;;;;;;;17.05;74.25;102185.06;5417755;26;20231;-79
2024/04/12 08:25:26;;;;;;;9.23;8.40;;;;;;;17.11;73.62;102199.06;5416708;26;20336;-77
2024/04/12 08:27:55;;;;;;;8.20;7.50;;;;;;;17.07;73.90;102188.53;5420443;26;20623;-80
2024/04/12 08:30:20;;;;;;;8.23;7.53;;;;;;;17.20;73.63;102199.72;5420977;26;20595;-79
2024/04/12 08:32:51;;;;;;;7.47;6.73;;;;;;;17.37;73.56;102198.56;5419145;26;20268;-79
2024/04/12 08:35:19;;;;;;;7.93;7.23;;;;;;;17.06;73.63;102221.09;5418182;26;20219;-79
2024/04/12 08:37:47;;;;;;;8.10;7.43;;;;;;;17.09;73.18;102211.41;5420136;26;20232;-79
2024/04/12 08:40:19;;;;;;;7.87;7.17;;;;;;;17.19;73.06;102219.13;5418615;26;20220;-78
2024/04/12 08:42:47;;;;;;;6.97;6.40;;;;;;;16.97;71.96;102250.28;5418554;26;20779;-79
2024/04/12 08:45:17;;;;;;;7.50;6.90;;;;;;;17.32;73.27;102225.03;5417329;26;20255;-79
2024/04/12 08:47:54;;;;;;;7.33;6.83;;;;;;;17.26;74.17;102210.22;5418286;26;20242;-79
2024/04/12 08:50:23;;;;;;;7.77;7.20;;;;;;;17.20;72.92;102215.56;5417885;26;20759;-80
2024/04/12 08:52:53;;;;;;;7.67;7.00;;;;;;;16.97;73.32;102223.03;5418293;26;20283;-78
2024/04/12 08:55:23;;;;;;;7.57;7.07;;;;;;;17.04;73.41;102208.84;5418073;26;20768;-80
2024/04/12 08:57:56;;;;;;;7.60;7.00;;;;;;;17.00;73.68;102210.66;5420641;26;20237;-79
2024/04/12 09:00:28;;;;;;;7.37;6.77;;;;;;;17.18;73.81;102211.22;5419481;26;20303;-81
2024/04/12 09:03:02;;;;;;;7.67;7.03;;;;;;;17.12;74.18;102211.34;5418685;26;20229;-80
2024/04/12 09:05:28;;;;;;;8.10;7.50;;;;;;;17.28;73.96;102207.50;5421035;26;20897;-80
2024/04/12 09:07:58;;;;;;;6.67;6.17;;;;;;;17.31;73.49;102225.09;5420564;26;20242;-80
2024/04/12 09:10:27;;;;;;;5.83;5.43;;;;;;;17.26;72.59;102240.97;5418051;26;20312;-81
2024/04/12 09:13:00;;;;;;;7.90;6.20;;;;;;;17.39;73.50;102226.66;5418710;26;20217;-81
2024/04/12 09:15:27;;;;;;;7.57;6.07;;;;;;;17.37;72.25;102232.88;5417129;26;20856;-81
2024/04/12 09:18:01;;;;;;;6.53;6.03;;;;;;;17.55;71.86;102239.59;5417109;26;20279;-80
2024/04/12 09:20:30;;;;;;;6.50;6.00;;;;;;;17.51;71.09;102253.75;5416924;26;20695;-80
2024/04/12 09:23:13;;;;;;;7.40;6.80;;;;;;;17.64;72.41;102247.31;5417508;26;20588;-80
2024/04/12 09:25:43;;;;;;;6.57;6.07;;;;;;;17.81;72.60;102231.16;5417870;26;20220;-82
2024/04/12 09:28:13;;;;;;;6.23;5.73;;;;;;;17.93;72.42;102233.56;5417005;26;20243;-82
2024/04/12 09:33:31;;;;;;;6.20;5.70;;;;;;;17.99;69.96;102269.56;5349377;26;20721;-80
2024/04/12 09:36:06;;;;;;;5.43;5.03;;;;;;;18.00;71.28;102271.31;5417622;26;20261;-79
2024/04/12 09:38:33;;;;;;;5.03;4.63;;;;;;;17.51;70.66;102296.88;5418244;26;20274;-81
2024/04/12 09:41:27;;;;;;;5.63;5.23;;;;;;;17.67;70.68;102279.81;5417879;26;20221;-79
2024/04/12 09:43:59;;;;;;;6.00;5.00;;;;;;;17.76;70.45;102288.47;5419277;26;20260;-80
2024/04/12 09:46:46;;;;;;;5.23;4.83;;;;;;;17.42;71.85;102279.44;5417837;26;20272;-80
2024/04/12 10:39:44;;;;;;;5.77;5.20;;;;;;;18.23;72.05;102232.03;5416064;26;20272;-84
2024/04/12 10:42:13;;;;;;;5.93;5.53;;;;;;;18.11;72.05;102221.72;5411427;26;20279;-82
2024/04/12 10:44:40;;;;;;;6.33;5.83;;;;;;;18.30;71.85;102206.34;5411927;26;20274;-82
2024/04/12 10:47:12;;;;;;;6.20;5.77;;;;;;;18.33;71.03;102221.25;5414217;26;20239;-82
2024/04/12 10:49:37;;;;;;;6.73;6.23;;;;;;;18.52;70.85;102209.34;5416097;26;20793;-82
2024/04/12 10:52:08;;;;;;;6.77;6.17;;;;;;;18.72;70.97;102224.72;5416815;26;20231;-83
2024/04/12 10:54:34;;;;;;;6.43;5.93;;;;;;;18.63;70.19;102254.94;5415554;26;20715;-82
2024/04/12 10:57:03;;;;;;;7.77;7.10;;;;;;;18.57;70.61;102249.78;5415568;26;20236;-81
2024/04/12 10:59:28;;;;;;;7.23;6.57;;;;;;;18.76;70.49;102249.34;5417052;26;20233;-82
2024/04/12 11:01:59;;;;;;;8.00;7.13;;;;;;;18.66;69.69;102256.63;5418848;26;20275;-82
2024/04/12 11:04:34;;;;;;;7.53;6.93;;;;;;;18.89;70.38;102245.53;5420925;26;20244;-83
2024/04/12 11:07:02;;;;;;;6.80;6.20;;;;;;;19.00;69.37;102255.84;5419648;26;20237;-81
2024/04/12 11:09:38;;;;;;;7.27;6.77;;;;;;;19.03;69.15;102259.28;5422570;26;20829;-80
2024/04/12 11:12:10;;;;;;;6.83;6.33;;;;;;;18.99;69.19;102275.28;5419429;26;20323;-80
2024/04/12 11:14:36;;;;;;;6.90;6.30;;;;;;;19.32;69.71;102251.50;5415231;26;20345;-80
2024/04/12 11:33:39;;;;;;;8.50;7.80;;;;;;;19.53;67.84;102298.59;5418650;26;20333;-79
2024/04/12 11:36:14;;;;;;;9.27;8.57;;;;;;;19.37;68.46;102310.50;5417823;26;20269;-81
2024/04/12 11:38:44;;;;;;;9.57;8.77;;;;;;;19.28;68.30;102286.91;5409949;26;20270;-80
2024/04/12 11:41:15;;;;;;;8.97;8.17;;;;;;;19.36;69.15;102284.94;5409081;26;20266;-80
2024/04/12 11:43:45;;;;;;;8.80;8.10;;;;;;;19.30;68.85;102285.09;5403958;26;20806;-78
2024/04/12 11:46:13;;;;;;;9.57;8.87;;;;;;;19.20;70.08;102257.97;5417359;26;20333;-79
2024/04/12 11:48:42;;;;;;;10.10;9.30;;;;;;;19.35;70.52;102220.50;5423182;26;20235;-79
2024/04/12 11:51:15;;;;;;;10.83;9.93;;;;;;;19.17;70.07;102240.41;5438520;26;20223;-80
2024/04/12 11:53:43;;;;;;;10.07;9.27;;;;;;;19.41;70.51;102209.75;5403490;26;20273;-79
2024/04/12 11:56:09;;;;;;;10.30;9.50;;;;;;;19.15;70.02;102230.78;5418209;26;20272;-80
2024/04/12 11:58:37;;;;;;;9.97;9.27;;;;;;;18.99;70.83;102238.25;5431691;26;20273;-80
2024/04/12 12:01:04;;;;;;;10.23;9.20;;;;;;;19.06;70.82;102215.97;5417966;26;20792;-79
2024/04/12 12:03:30;;;;;;;9.20;8.50;;;;;;;19.07;71.27;102199.19;5415788;26;20306;-80
2024/04/12 12:06:06;;;;;;;9.37;8.57;;;;;;;19.29;71.30;102180.09;5417074;26;20233;-80
2024/04/12 12:08:40;;;;;;;8.17;7.50;;;;;;;19.50;71.04;102174.16;5415881;26;20252;-80
2024/04/12 12:11:08;;;;;;;8.90;8.10;;;;;;;19.15;70.16;102209.59;5413183;26;20256;-79
2024/04/12 12:13:34;;;;;;;8.83;8.10;;;;;;;19.26;70.99;102194.25;5416176;26;20590;-79
2024/04/12 12:16:03;;;;;;;7.83;7.23;;;;;;;19.44;71.04;102185.84;5404160;26;20294;-80
2024/04/12 12:18:29;;;;;;;7.73;7.13;;;;;;;19.59;71.17;102173.06;5416732;26;20277;-80
2024/04/12 12:20:57;;;;;;;7.10;6.50;;;;;;;19.60;70.62;102182.72;5416102;26;20233;-81
2024/04/12 12:23:24;;;;;;;7.97;7.33;;;;;;;19.50;70.63;102191.84;5416580;26;20231;-79
2024/04/12 12:25:56;;;;;;;7.53;6.93;;;;;;;19.34;71.26;102171.09;5415191;26;20235;-79
2024/04/12 12:28:23;;;;;;;7.50;6.90;;;;;;;19.51;70.11;102170.63;5416308;26;20336;-80
2024/04/12 12:30:54;;;;;;;7.40;6.70;;;;;;;19.52;70.65;102158.25;5416126;26;20271;-80
2024/04/12 12:33:20;;;;;;;7.47;6.77;;;;;;;19.55;70.32;102182.00;5416905;26;20241;-79
2024/04/12 12:35:50;;;;;;;6.93;6.33;;;;;;;19.54;69.98;102188.19;5415627;26;20280;-79
2024/04/12 12:38:15;;;;;;;6.73;6.10;;;;;;;19.78;70.95;102178.69;5416830;26;20640;-80